Myrtle Beach, South Carolina
Current Conditions -  °F | °C
As of 7:45 PM on Wednesday 22 Oct 2014 (Local Time) from KMYR Reporting Station
Clear Clear  
Wind Chill: 59°   Ceiling: Unl
Heat Index: 59°   Visibility: 10mi
Dew Point: 45°   Wind: 6mph
Humidity: 59%   Direction: 300°WNW
Pressure: 30.01"   Gusts: NA
Location:  33.69°N, 78.88°W
Report Text: KMYR 222345Z 30005KT 10SM CLR 15/07 A3001
Loading
Personal Weather Stations






























Interactive Weather Map
Tropical Storm Tracking
New forecast layout! Learn more

10-Day Weather Forecast

Advertisements
Track Severe Weather on mobile